createdAt,value
2022-11-14T00:02:28.668Z,66.50
2022-11-14T00:07:51.129Z,66.30
2022-11-14T00:13:14.203Z,66.50
2022-11-14T00:18:36.313Z,66.50
2022-11-14T00:23:58.446Z,66.60
2022-11-14T00:29:20.646Z,66.40
2022-11-14T00:34:42.822Z,66.30
2022-11-14T00:40:05.467Z,66.40
2022-11-14T00:45:27.614Z,66.30
2022-11-14T00:50:50.006Z,66.40
2022-11-14T00:56:12.195Z,66.40
2022-11-14T01:01:34.511Z,66.20
2022-11-14T01:06:56.756Z,66.30
2022-11-14T01:12:19.153Z,66.10
2022-11-14T01:17:41.415Z,66.10
2022-11-14T01:23:03.532Z,66.10
2022-11-14T01:28:25.654Z,66.00
2022-11-14T01:33:50.277Z,66.00
2022-11-14T01:39:12.547Z,66.00
2022-11-14T01:44:52.647Z,65.10
2022-11-14T01:50:15.099Z,66.40
2022-11-14T01:55:37.309Z,66.40
2022-11-14T02:01:00.169Z,66.40
2022-11-14T02:06:25.994Z,66.70
2022-11-14T02:11:48.972Z,66.60
2022-11-14T02:17:28.939Z,66.40
2022-11-14T02:22:52.302Z,66.50
2022-11-14T02:28:14.426Z,66.70
2022-11-14T02:33:36.565Z,66.70
2022-11-14T02:38:58.706Z,66.40
2022-11-14T02:44:20.894Z,66.40
2022-11-14T02:49:43.053Z,66.20
2022-11-14T02:55:06.115Z,66.10
2022-11-14T03:00:28.293Z,66.50
2022-11-14T03:05:54.404Z,66.40
2022-11-14T03:11:16.584Z,66.30
2022-11-14T03:16:38.804Z,66.50
2022-11-14T03:22:00.991Z,67.10
2022-11-14T03:27:23.144Z,67.10
2022-11-14T03:32:45.262Z,67.10
2022-11-14T03:38:07.378Z,66.70
2022-11-14T03:43:33.146Z,66.90
2022-11-14T03:48:55.359Z,67.00
2022-11-14T03:54:17.584Z,66.80
2022-11-14T03:59:39.802Z,66.60
2022-11-14T04:05:02.295Z,67.30
2022-11-14T04:10:24.429Z,66.60
2022-11-14T04:15:46.811Z,66.80
2022-11-14T04:21:08.975Z,66.80
2022-11-14T04:26:31.067Z,66.70
2022-11-14T04:31:53.201Z,66.60
2022-11-14T04:37:15.332Z,66.50
2022-11-14T04:42:37.425Z,66.30
2022-11-14T04:47:59.565Z,66.50
2022-11-14T04:53:21.691Z,66.70
2022-11-14T04:58:43.839Z,66.70
2022-11-14T05:04:05.983Z,67.00
2022-11-14T05:09:28.173Z,67.00
2022-11-14T05:14:51.297Z,66.90
2022-11-14T05:20:13.693Z,67.00
2022-11-14T05:25:35.870Z,67.10
2022-11-14T05:31:03.695Z,67.00
2022-11-14T05:36:25.799Z,67.10
2022-11-14T05:41:48.113Z,67.00
2022-11-14T05:47:10.212Z,67.10
2022-11-14T05:52:32.350Z,67.10
2022-11-14T05:57:57.695Z,67.20
2022-11-14T06:03:20.620Z,67.30
2022-11-14T06:08:43.058Z,67.30
2022-11-14T06:14:10.475Z,67.40
2022-11-14T06:19:33.159Z,67.40
2022-11-14T06:24:55.350Z,67.70
2022-11-14T06:30:17.572Z,67.80
2022-11-14T06:35:40.084Z,68.30
2022-11-14T06:46:16.975Z,69.10
2022-11-14T06:51:39.136Z,68.90
2022-11-14T06:57:01.264Z,69.90
2022-11-14T07:02:23.382Z,69.90
2022-11-14T07:07:45.580Z,71.50
2022-11-14T07:13:09.708Z,70.40
2022-11-14T07:18:33.181Z,72.80
2022-11-14T07:23:56.681Z,71.10
2022-11-14T07:29:18.845Z,67.60
2022-11-14T07:34:40.933Z,67.40
2022-11-14T07:40:03.551Z,69.70
2022-11-14T07:45:26.323Z,63.30
2022-11-14T07:50:48.673Z,65.40
2022-11-14T07:56:11.697Z,67.60
2022-11-14T08:01:34.023Z,66.60
2022-11-14T08:06:56.233Z,64.60
2022-11-14T08:12:18.470Z,62.60
2022-11-14T08:17:40.798Z,61.30
2022-11-14T08:23:05.141Z,60.60
2022-11-14T08:28:27.978Z,59.80
2022-11-14T08:33:52.486Z,60.20
2022-11-14T08:39:14.561Z,60.00
2022-11-14T08:44:36.702Z,60.10
2022-11-14T08:49:58.831Z,60.60
2022-11-14T08:55:21.135Z,60.90
2022-11-14T09:00:43.245Z,61.10
2022-11-14T09:06:05.534Z,61.00
2022-11-14T09:11:27.654Z,61.10
2022-11-14T09:16:49.795Z,61.10
2022-11-14T09:22:12.766Z,61.00
2022-11-14T09:27:34.870Z,61.20
2022-11-14T09:33:02.144Z,61.20
2022-11-14T09:38:26.688Z,61.00
2022-11-14T09:44:28.583Z,60.90
2022-11-14T09:49:53.951Z,61.20
2022-11-14T09:55:21.980Z,61.30
2022-11-14T10:00:58.669Z,61.40
2022-11-14T10:17:39.375Z,61.50
2022-11-14T10:23:16.418Z,62.10
2022-11-14T10:39:51.728Z,62.30
2022-11-14T10:50:42.367Z,62.00
2022-11-14T10:56:05.509Z,61.10
2022-11-14T11:28:22.216Z,60.90
2022-11-14T11:33:44.532Z,61.50
2022-11-14T11:39:10.298Z,60.90
2022-11-14T11:44:38.484Z,61.50
2022-11-14T11:50:02.297Z,61.60
2022-11-14T11:55:32.135Z,61.40
2022-11-14T12:00:55.752Z,61.40
2022-11-14T12:06:29.869Z,61.40
2022-11-14T12:11:55.815Z,61.20
2022-11-14T12:33:31.372Z,62.00
2022-11-14T12:38:55.023Z,61.30
2022-11-14T12:44:31.016Z,61.60
2022-11-14T12:55:25.652Z,61.60
2022-11-14T13:06:09.644Z,61.50
2022-11-14T13:17:01.369Z,61.40
2022-11-14T13:22:44.972Z,61.30
2022-11-14T13:28:47.976Z,61.10
2022-11-14T13:34:39.066Z,61.30
2022-11-14T13:51:36.203Z,61.40
2022-11-14T14:07:53.545Z,61.20
2022-11-14T14:13:43.666Z,61.10
2022-11-14T14:34:41.929Z,61.30
2022-11-14T14:40:08.783Z,60.70
2022-11-14T14:45:46.187Z,61.30
2022-11-14T14:51:14.422Z,61.50
2022-11-14T14:56:36.536Z,61.60
2022-11-14T15:01:59.234Z,61.50
2022-11-14T15:07:24.898Z,61.60
2022-11-14T15:12:48.098Z,61.30
2022-11-14T15:18:24.012Z,61.30
2022-11-14T15:23:46.802Z,61.60
2022-11-14T15:29:21.035Z,61.50
2022-11-14T15:34:43.232Z,61.40
2022-11-14T15:40:23.481Z,61.20
2022-11-14T15:45:45.709Z,61.10
2022-11-14T15:51:07.857Z,60.90
2022-11-14T15:56:30.566Z,61.10
2022-11-14T16:01:57.787Z,61.40
2022-11-14T16:07:21.071Z,61.20
2022-11-14T16:12:45.768Z,61.20
2022-11-14T16:18:12.425Z,61.40
2022-11-14T16:23:34.570Z,61.50
2022-11-14T16:28:57.192Z,61.60
2022-11-14T16:34:22.245Z,61.30
2022-11-14T16:39:44.388Z,61.40
2022-11-14T16:45:07.240Z,61.50
2022-11-14T16:50:29.617Z,61.40
2022-11-14T16:55:51.746Z,61.80
2022-11-14T17:01:20.974Z,61.70
2022-11-14T17:06:43.744Z,62.00
2022-11-14T17:12:08.891Z,61.80
2022-11-14T17:17:31.503Z,61.40
2022-11-14T17:22:53.685Z,61.90
2022-11-14T17:28:15.846Z,61.50
2022-11-14T17:33:38.557Z,61.90
2022-11-14T17:39:00.941Z,61.60
2022-11-14T17:44:23.107Z,61.70
2022-11-14T17:49:45.315Z,61.60
2022-11-14T17:55:07.727Z,61.70
2022-11-14T18:00:29.864Z,61.80
2022-11-14T18:05:51.996Z,61.90
2022-11-14T18:11:17.099Z,61.70
2022-11-14T18:17:10.347Z,62.20
2022-11-14T18:22:21.770Z,62.30
2022-11-14T18:27:44.168Z,62.20
2022-11-14T18:33:06.296Z,62.40
2022-11-14T18:38:33.299Z,62.40
2022-11-14T18:43:56.126Z,62.60
2022-11-14T18:49:18.670Z,62.90
2022-11-14T18:54:41.140Z,62.90
2022-11-14T19:00:05.265Z,63.00
2022-11-14T19:05:27.433Z,62.90
2022-11-14T19:10:49.771Z,62.80
2022-11-14T19:16:11.955Z,63.10
2022-11-14T19:21:35.267Z,62.80
2022-11-14T19:26:57.365Z,63.20
2022-11-14T19:32:19.592Z,63.10
2022-11-14T19:37:41.919Z,63.40
2022-11-14T19:43:07.281Z,63.10
2022-11-14T19:48:30.396Z,63.10
2022-11-14T19:53:53.594Z,63.20
2022-11-14T19:59:19.031Z,63.10
2022-11-14T20:04:46.926Z,63.20
2022-11-14T20:10:09.739Z,63.30
2022-11-14T20:15:32.191Z,63.10
2022-11-14T20:20:57.975Z,63.20
2022-11-14T20:26:20.485Z,63.10
2022-11-14T20:31:42.646Z,63.10
2022-11-14T20:37:11.028Z,63.00
2022-11-14T20:42:34.042Z,63.10
2022-11-14T20:47:56.242Z,63.00
2022-11-14T20:53:19.303Z,63.20
2022-11-14T20:58:45.463Z,63.20
2022-11-14T21:04:07.966Z,63.30
2022-11-14T21:09:30.189Z,63.10
2022-11-14T21:14:52.350Z,63.10
2022-11-14T21:20:14.466Z,63.10
2022-11-14T21:25:36.629Z,63.40
2022-11-14T21:31:00.890Z,63.40
2022-11-14T21:36:43.909Z,63.40
2022-11-14T21:42:05.572Z,63.20
2022-11-14T21:47:27.726Z,63.90
2022-11-14T21:52:49.880Z,63.20
2022-11-14T21:58:12.974Z,63.10
2022-11-14T22:04:01.771Z,63.20
2022-11-14T22:09:28.391Z,63.40
2022-11-14T22:14:51.934Z,63.50
2022-11-14T22:20:14.234Z,63.40
2022-11-14T22:25:36.373Z,63.40
2022-11-14T22:36:16.552Z,63.90
2022-11-14T22:41:38.781Z,64.00
2022-11-14T22:47:00.925Z,63.80
2022-11-14T22:52:23.030Z,63.80
2022-11-14T22:57:45.172Z,63.60
2022-11-14T23:03:07.586Z,63.80
2022-11-14T23:08:29.790Z,63.80
2022-11-14T23:13:53.855Z,64.00
2022-11-14T23:19:16.082Z,64.00
2022-11-14T23:24:38.162Z,64.10
2022-11-14T23:30:00.279Z,64.00
2022-11-14T23:35:22.420Z,63.80
2022-11-14T23:40:44.892Z,63.70
2022-11-14T23:46:07.097Z,63.90
2022-11-14T23:51:29.942Z,63.90
2022-11-14T23:56:52.013Z,63.90
